createdAt,value
2022-12-13T00:03:23.681Z,1084.74074
2022-12-13T00:08:25.290Z,1064
2022-12-13T00:13:26.942Z,1084.74074
2022-12-13T00:18:28.649Z,1128.61538
2022-12-13T00:23:30.275Z,1106.26415
2022-12-13T00:28:31.931Z,1128.61538
2022-12-13T00:33:33.568Z,1106.26415
2022-12-13T00:38:35.209Z,1084.74074
2022-12-13T00:43:36.896Z,1064
2022-12-13T00:48:38.695Z,1044
2022-12-13T00:53:40.304Z,1106.26415
2022-12-13T00:58:43.361Z,1084.74074
2022-12-13T01:03:48.067Z,1084.74074
2022-12-13T01:08:49.720Z,1128.61538
2022-12-13T01:13:51.301Z,1106.26415
2022-12-13T01:18:52.913Z,1084.74074
2022-12-13T01:23:54.533Z,1176
2022-12-13T01:28:56.132Z,1151.84314
2022-12-13T01:33:57.742Z,1176
2022-12-13T01:38:59.558Z,1151.84314
2022-12-13T01:44:01.533Z,1128.61538
2022-12-13T01:49:03.207Z,744
2022-12-13T01:54:04.883Z,836.75362
2022-12-13T01:59:06.708Z,1106.26415
2022-12-13T02:04:08.435Z,1151.84314
2022-12-13T02:09:10.081Z,1151.84314
2022-12-13T02:14:11.691Z,1151.84314
2022-12-13T02:19:20.535Z,1151.84314
2022-12-13T02:24:22.155Z,1176
2022-12-13T02:29:30.468Z,1176
2022-12-13T02:34:34.091Z,1151.84314
2022-12-13T02:39:35.882Z,1151.84314
2022-12-13T02:44:37.521Z,1128.61538
2022-12-13T02:49:39.233Z,1151.84314
2022-12-13T02:54:42.849Z,1151.84314
2022-12-13T02:59:44.797Z,1176
2022-12-13T03:04:46.399Z,1084.74074
2022-12-13T03:09:48.017Z,1176
2022-12-13T03:14:49.689Z,1151.84314
2022-12-13T03:19:51.292Z,1151.84314
2022-12-13T03:24:52.914Z,1151.84314
2022-12-13T03:29:54.910Z,1201.14286
2022-12-13T03:35:00.932Z,1227.33333
2022-12-13T03:40:02.719Z,1227.33333
2022-12-13T03:45:04.361Z,1227.33333
2022-12-13T03:50:25.785Z,1176
2022-12-13T03:55:29.097Z,1201.14286
2022-12-13T04:00:30.755Z,1151.84314
2022-12-13T04:05:32.381Z,1201.14286
2022-12-13T04:10:34.224Z,1254.6383
2022-12-13T04:15:35.870Z,1201.14286
2022-12-13T04:20:37.537Z,1151.84314
2022-12-13T04:25:39.298Z,1227.33333
2022-12-13T04:30:40.882Z,1201.14286
2022-12-13T04:35:42.472Z,1176
2022-12-13T04:40:44.152Z,1151.84314
2022-12-13T04:45:45.773Z,1106.26415
2022-12-13T04:50:47.429Z,1064
2022-12-13T04:55:49.039Z,1128.61538
2022-12-13T05:00:50.665Z,1151.84314
2022-12-13T05:05:52.310Z,1128.61538
2022-12-13T05:10:53.909Z,1128.61538
2022-12-13T05:15:55.552Z,1084.74074
2022-12-13T05:20:57.185Z,1084.74074
2022-12-13T05:25:58.774Z,1044
2022-12-13T05:31:00.396Z,1006.06897
2022-12-13T05:36:02.413Z,1044
2022-12-13T05:41:04.022Z,1064
2022-12-13T05:46:05.700Z,1044
2022-12-13T05:51:10.573Z,1084.74074
2022-12-13T05:56:13.085Z,1106.26415
2022-12-13T06:01:24.331Z,1084.74074
2022-12-13T06:06:26.014Z,1176
2022-12-13T06:11:31.118Z,1227.33333
2022-12-13T06:16:34.233Z,1227.33333
2022-12-13T06:21:41.129Z,1201.14286
2022-12-13T06:26:47.413Z,1283.13043
2022-12-13T06:31:48.993Z,1312.88889
2022-12-13T06:36:50.860Z,1312.88889
2022-12-13T06:41:52.434Z,1312.88889
2022-12-13T06:46:54.446Z,1254.6383
2022-12-13T06:52:14.510Z,1227.33333
2022-12-13T06:57:16.124Z,1283.13043
2022-12-13T07:02:24.948Z,1254.6383
2022-12-13T07:07:27.574Z,1227.33333
2022-12-13T07:12:29.642Z,1283.13043
2022-12-13T07:17:32.467Z,1254.6383
2022-12-13T07:22:36.967Z,1283.13043
2022-12-13T07:27:41.935Z,1227.33333
2022-12-13T07:32:43.730Z,1254.6383
2022-12-13T07:37:45.371Z,1283.13043
2022-12-13T07:42:46.957Z,1283.13043
2022-12-13T07:47:48.676Z,1312.88889
2022-12-13T07:52:50.336Z,1312.88889
2022-12-13T07:57:51.945Z,1312.88889
2022-12-13T08:02:53.553Z,1312.88889
2022-12-13T08:07:55.146Z,1376.55814
2022-12-13T08:12:56.795Z,1254.6383
2022-12-13T08:17:58.446Z,1128.61538
2022-12-13T08:23:01.951Z,1064
2022-12-13T08:28:04.083Z,1064
2022-12-13T08:33:05.698Z,1064
2022-12-13T08:38:07.312Z,1044
2022-12-13T08:43:08.895Z,1064
2022-12-13T08:48:10.499Z,1064
2022-12-13T08:53:12.058Z,1064
2022-12-13T08:58:31.459Z,1064
2022-12-13T09:03:33.085Z,1201.14286
2022-12-13T09:08:35.141Z,1312.88889
2022-12-13T09:13:37.183Z,1344
2022-12-13T09:18:45.460Z,1344
2022-12-13T09:23:56.620Z,1376.55814
2022-12-13T09:29:10.963Z,1376.55814
2022-12-13T09:34:13.485Z,1227.33333
2022-12-13T09:39:15.192Z,1128.61538
2022-12-13T09:44:30.530Z,1151.84314
2022-12-13T09:49:35.739Z,1128.61538
2022-12-13T09:54:47.148Z,1176
2022-12-13T09:59:49.823Z,1084.74074
2022-12-13T10:04:51.439Z,1044
2022-12-13T10:09:53.048Z,1044
2022-12-13T10:14:54.653Z,1044
2022-12-13T10:19:56.265Z,1106.26415
2022-12-13T10:24:57.967Z,1084.74074
2022-12-13T10:29:59.598Z,1064
2022-12-13T10:35:01.210Z,1084.74074
2022-12-13T10:40:02.865Z,1176
2022-12-13T10:45:04.635Z,1283.13043
2022-12-13T10:50:06.275Z,1312.88889
2022-12-13T10:55:22.765Z,1312.88889
2022-12-13T11:00:25.613Z,1312.88889
2022-12-13T11:05:27.224Z,1376.55814
2022-12-13T11:10:28.958Z,1376.55814
2022-12-13T11:15:30.664Z,1254.6383
2022-12-13T11:20:32.251Z,1227.33333
2022-12-13T11:25:33.869Z,1254.6383
2022-12-13T11:30:35.509Z,1283.13043
2022-12-13T11:35:37.168Z,1376.55814
2022-12-13T11:40:38.766Z,1376.55814
2022-12-13T11:45:40.447Z,1376.55814
2022-12-13T11:50:42.281Z,1376.55814
2022-12-13T11:55:43.939Z,1410.66667
2022-12-13T12:00:45.512Z,1410.66667
2022-12-13T12:05:48.641Z,1376.55814
2022-12-13T12:10:58.046Z,1283.13043
2022-12-13T12:16:02.989Z,1201.14286
2022-12-13T12:21:04.632Z,1227.33333
2022-12-13T12:26:06.254Z,1227.33333
2022-12-13T12:36:08.192Z,1227.33333
2022-12-13T12:41:16.997Z,1254.6383
2022-12-13T12:46:19.171Z,1227.33333
2022-12-13T12:51:20.824Z,1254.6383
2022-12-13T12:56:22.425Z,1283.13043
2022-12-13T13:01:24.098Z,1312.88889
2022-12-13T13:06:25.766Z,1410.66667
2022-12-13T13:11:27.393Z,1283.13043
2022-12-13T13:16:29.062Z,1312.88889
2022-12-13T13:21:30.718Z,1283.13043
2022-12-13T13:26:36.340Z,1176
2022-12-13T13:31:38.476Z,1176
2022-12-13T13:36:40.120Z,1128.61538
2022-12-13T13:41:41.742Z,1151.84314
2022-12-13T13:46:43.423Z,1227.33333
2022-12-13T13:52:16.754Z,1201.14286
2022-12-13T13:58:07.253Z,1201.14286
2022-12-13T14:03:22.420Z,1128.61538
2022-12-13T14:08:31.058Z,1006.06897
2022-12-13T14:13:32.657Z,970.66667
2022-12-13T14:18:34.349Z,906.5
2022-12-13T14:23:35.987Z,877.33333
2022-12-13T14:28:37.663Z,891.69231
2022-12-13T14:33:39.291Z,863.40299
2022-12-13T14:38:49.334Z,953.83607
2022-12-13T14:43:50.997Z,1044
2022-12-13T14:48:52.618Z,988.0678
2022-12-13T14:53:54.225Z,921.77778
2022-12-13T14:58:55.901Z,849.88235
2022-12-13T15:03:59.592Z,836.75362
2022-12-13T15:09:02.540Z,824
2022-12-13T15:14:07.095Z,849.88235
2022-12-13T15:19:11.549Z,811.60563
2022-12-13T15:24:13.161Z,799.55556
2022-12-13T15:29:14.818Z,787.83562
2022-12-13T15:34:28.289Z,799.55556
2022-12-13T15:39:31.383Z,787.83562
2022-12-13T15:44:32.999Z,799.55556
2022-12-13T15:49:34.742Z,811.60563
2022-12-13T15:54:36.496Z,799.55556
2022-12-13T15:59:38.071Z,824
2022-12-13T16:04:39.695Z,824
2022-12-13T16:09:41.305Z,811.60563
2022-12-13T16:14:49.300Z,799.55556
2022-12-13T16:19:51.761Z,799.55556
2022-12-13T16:24:53.501Z,799.55556
2022-12-13T16:29:55.118Z,787.83562
2022-12-13T16:34:56.712Z,787.83562
2022-12-13T16:39:58.291Z,811.60563
2022-12-13T16:45:39.516Z,824
2022-12-13T16:50:42.634Z,811.60563
2022-12-13T16:55:44.294Z,824
2022-12-13T17:01:00.190Z,836.75362
2022-12-13T17:06:01.855Z,836.75362
2022-12-13T17:11:06.597Z,824
2022-12-13T17:16:08.388Z,811.60563
2022-12-13T17:21:10.091Z,787.83562
2022-12-13T17:26:11.682Z,811.60563
2022-12-13T17:31:13.490Z,787.83562
2022-12-13T17:36:15.261Z,776.43243
2022-12-13T17:41:16.854Z,714
2022-12-13T17:46:18.565Z,776.43243
2022-12-13T17:51:20.262Z,776.43243
2022-12-13T17:56:21.884Z,776.43243
2022-12-13T18:01:23.564Z,787.83562
2022-12-13T18:06:25.248Z,733.74359
2022-12-13T18:11:34.495Z,765.33333
2022-12-13T18:16:38.274Z,787.83562
2022-12-13T18:21:40.556Z,824
2022-12-13T18:26:42.169Z,849.88235
2022-12-13T18:31:43.887Z,849.88235
2022-12-13T18:36:45.551Z,849.88235
2022-12-13T18:41:47.141Z,849.88235
2022-12-13T18:46:48.748Z,849.88235
2022-12-13T18:51:50.331Z,799.55556
2022-12-13T18:56:51.955Z,799.55556
2022-12-13T19:01:53.629Z,811.60563
2022-12-13T19:06:55.287Z,799.55556
2022-12-13T19:11:58.654Z,799.55556
2022-12-13T19:17:00.389Z,799.55556
2022-12-13T19:22:02.164Z,824
2022-12-13T19:27:03.755Z,824
2022-12-13T19:32:05.372Z,836.75362
2022-12-13T19:37:07.076Z,836.75362
2022-12-13T19:42:08.750Z,849.88235
2022-12-13T19:47:10.337Z,849.88235
2022-12-13T19:52:11.943Z,877.33333
2022-12-13T19:57:13.522Z,863.40299
2022-12-13T20:02:15.109Z,836.75362
2022-12-13T20:07:16.760Z,863.40299
2022-12-13T20:12:18.418Z,891.69231
2022-12-13T20:17:20.045Z,921.77778
2022-12-13T20:22:21.712Z,849.88235
2022-12-13T20:27:23.505Z,877.33333
2022-12-13T20:32:25.257Z,836.75362
2022-12-13T20:37:26.851Z,863.40299
2022-12-13T20:42:28.429Z,877.33333
2022-12-13T20:47:33.830Z,906.5
2022-12-13T20:52:38.230Z,877.33333
2022-12-13T20:57:39.859Z,906.5
2022-12-13T21:02:41.503Z,863.40299
2022-12-13T21:07:43.100Z,937.54839
2022-12-13T21:12:50.027Z,953.83607
2022-12-13T21:17:51.645Z,988.0678
2022-12-13T21:22:53.266Z,953.83607
2022-12-13T21:27:54.889Z,877.33333
2022-12-13T21:32:56.482Z,877.33333
2022-12-13T21:38:03.625Z,988.0678
2022-12-13T21:43:06.882Z,1064
2022-12-13T21:48:08.501Z,1024.70175
2022-12-13T21:53:10.124Z,1006.06897
2022-12-13T21:58:11.924Z,988.0678
2022-12-13T22:03:13.504Z,1044
2022-12-13T22:08:15.143Z,1044
2022-12-13T22:13:16.776Z,988.0678
2022-12-13T22:18:18.337Z,953.83607
2022-12-13T22:23:19.954Z,937.54839
2022-12-13T22:28:21.587Z,988.0678
2022-12-13T22:33:23.306Z,970.66667
2022-12-13T22:38:25.129Z,953.83607
2022-12-13T22:43:27.263Z,953.83607
2022-12-13T22:48:29.466Z,921.77778
2022-12-13T22:53:31.401Z,953.83607
2022-12-13T22:58:33.085Z,937.54839
2022-12-13T23:03:34.703Z,906.5
2022-12-13T23:08:41.787Z,921.77778
2022-12-13T23:13:44.987Z,891.69231
2022-12-13T23:18:50.213Z,863.40299
2022-12-13T23:23:51.825Z,776.43243
2022-12-13T23:28:53.484Z,723.74684
2022-12-13T23:33:55.125Z,787.83562
2022-12-13T23:38:56.729Z,744
2022-12-13T23:43:58.369Z,686.16867
2022-12-13T23:48:59.995Z,660.27907
2022-12-13T23:54:01.588Z,660.27907
2022-12-13T23:59:03.199Z,652.04598
